sensor_id;sensor_type;location;lat;lon;timestamp;pressure;altitude;pressure_sealevel;temperature;humidity
25526;BME280;13424;48.424;11.258;2023-02-28T00:00:19;96062.44;;;0.84;61.14
25526;BME280;13424;48.424;11.258;2023-02-28T00:02:46;96060.44;;;0.86;61.87
25526;BME280;13424;48.424;11.258;2023-02-28T00:05:15;96062.50;;;1.15;60.94
25526;BME280;13424;48.424;11.258;2023-02-28T00:07:41;96054.13;;;0.64;62.53
25526;BME280;13424;48.424;11.258;2023-02-28T00:10:13;96062.38;;;1.08;61.72
25526;BME280;13424;48.424;11.258;2023-02-28T00:12:40;96060.94;;;0.98;61.90
25526;BME280;13424;48.424;11.258;2023-02-28T00:15:09;96056.94;;;1.10;61.01
25526;BME280;13424;48.424;11.258;2023-02-28T00:17:35;96060.00;;;0.66;63.00
25526;BME280;13424;48.424;11.258;2023-02-28T00:20:02;96056.66;;;0.97;60.95
25526;BME280;13424;48.424;11.258;2023-02-28T00:22:29;96054.34;;;1.02;61.41
25526;BME280;13424;48.424;11.258;2023-02-28T00:24:54;96056.59;;;0.41;62.37
25526;BME280;13424;48.424;11.258;2023-02-28T00:27:20;96057.72;;;0.47;62.89
25526;BME280;13424;48.424;11.258;2023-02-28T00:29:46;96049.34;;;0.60;62.17
25526;BME280;13424;48.424;11.258;2023-02-28T00:32:12;96053.41;;;0.78;62.30
25526;BME280;13424;48.424;11.258;2023-02-28T00:34:38;96049.72;;;0.48;62.50
25526;BME280;13424;48.424;11.258;2023-02-28T00:37:06;96045.94;;;0.18;62.92
25526;BME280;13424;48.424;11.258;2023-02-28T00:39:38;96041.69;;;0.17;63.91
25526;BME280;13424;48.424;11.258;2023-02-28T00:45:32;96048.03;;;0.47;61.71
25526;BME280;13424;48.424;11.258;2023-02-28T00:47:58;96049.19;;;0.53;62.18
25526;BME280;13424;48.424;11.258;2023-02-28T00:50:24;96044.28;;;0.50;62.25
25526;BME280;13424;48.424;11.258;2023-02-28T00:52:50;96050.13;;;0.84;61.42
25526;BME280;13424;48.424;11.258;2023-02-28T00:55:17;96038.72;;;0.12;62.77
25526;BME280;13424;48.424;11.258;2023-02-28T00:57:44;96041.00;;;-0.17;63.84
25526;BME280;13424;48.424;11.258;2023-02-28T01:00:10;96045.59;;;-0.11;63.69
25526;BME280;13424;48.424;11.258;2023-02-28T01:02:36;96042.13;;;0.62;62.23
25526;BME280;13424;48.424;11.258;2023-02-28T01:05:02;96040.34;;;0.38;62.12
25526;BME280;13424;48.424;11.258;2023-02-28T01:07:29;96042.94;;;-0.28;63.37
25526;BME280;13424;48.424;11.258;2023-02-28T01:09:55;96038.25;;;0.25;62.63
25526;BME280;13424;48.424;11.258;2023-02-28T01:12:21;96034.94;;;-0.18;62.85
25526;BME280;13424;48.424;11.258;2023-02-28T01:14:46;96033.94;;;-0.92;65.15
25526;BME280;13424;48.424;11.258;2023-02-28T01:17:12;96029.69;;;-0.02;64.36
25526;BME280;13424;48.424;11.258;2023-02-28T01:19:38;96036.38;;;0.66;61.47
25526;BME280;13424;48.424;11.258;2023-02-28T01:22:05;96038.72;;;0.28;62.50
25526;BME280;13424;48.424;11.258;2023-02-28T01:24:31;96028.41;;;0.11;62.02
25526;BME280;13424;48.424;11.258;2023-02-28T01:26:58;96030.84;;;-0.20;63.44
25526;BME280;13424;48.424;11.258;2023-02-28T01:29:23;96035.13;;;0.05;63.50
25526;BME280;13424;48.424;11.258;2023-02-28T01:31:52;96038.06;;;0.10;62.68
25526;BME280;13424;48.424;11.258;2023-02-28T01:34:18;96035.91;;;-0.11;64.13
25526;BME280;13424;48.424;11.258;2023-02-28T01:36:45;96026.94;;;0.24;62.61
25526;BME280;13424;48.424;11.258;2023-02-28T01:39:11;96027.22;;;0.30;62.40
25526;BME280;13424;48.424;11.258;2023-02-28T01:41:38;96027.59;;;0.18;62.88
25526;BME280;13424;48.424;11.258;2023-02-28T01:44:54;96027.25;;;-0.03;63.04
25526;BME280;13424;48.424;11.258;2023-02-28T01:46:55;96024.97;;;0.02;63.03
25526;BME280;13424;48.424;11.258;2023-02-28T01:49:21;96028.22;;;0.37;62.58
25526;BME280;13424;48.424;11.258;2023-02-28T01:51:50;96033.44;;;0.53;63.35
25526;BME280;13424;48.424;11.258;2023-02-28T01:54:27;96027.56;;;0.26;62.69
25526;BME280;13424;48.424;11.258;2023-02-28T01:57:13;96045.91;;;0.51;62.14
25526;BME280;13424;48.424;11.258;2023-02-28T01:59:50;96032.66;;;0.20;63.30
25526;BME280;13424;48.424;11.258;2023-02-28T02:02:20;96030.84;;;0.45;62.66
25526;BME280;13424;48.424;11.258;2023-02-28T02:07:23;96026.72;;;0.50;63.10
25526;BME280;13424;48.424;11.258;2023-02-28T02:09:56;96020.94;;;0.63;62.93
25526;BME280;13424;48.424;11.258;2023-02-28T02:12:58;96018.63;;;0.76;62.59
25526;BME280;13424;48.424;11.258;2023-02-28T02:15:34;96014.13;;;-0.03;63.88
25526;BME280;13424;48.424;11.258;2023-02-28T02:27:10;96006.91;;;0.15;64.01
25526;BME280;13424;48.424;11.258;2023-02-28T02:31:04;96001.97;;;0.37;64.79
25526;BME280;13424;48.424;11.258;2023-02-28T02:33:59;95990.69;;;0.20;63.75
25526;BME280;13424;48.424;11.258;2023-02-28T02:39:21;95995.88;;;0.52;63.65
25526;BME280;13424;48.424;11.258;2023-02-28T02:45:45;95998.09;;;0.08;65.13
25526;BME280;13424;48.424;11.258;2023-02-28T02:48:14;95992.00;;;0.08;65.17
25526;BME280;13424;48.424;11.258;2023-02-28T02:50:58;95994.47;;;-0.07;64.71
25526;BME280;13424;48.424;11.258;2023-02-28T02:53:34;95995.44;;;-0.16;65.66
25526;BME280;13424;48.424;11.258;2023-02-28T02:56:01;95985.78;;;-0.16;64.77
25526;BME280;13424;48.424;11.258;2023-02-28T02:58:37;95992.47;;;0.36;64.75
25526;BME280;13424;48.424;11.258;2023-02-28T03:01:20;95998.97;;;0.72;63.59
25526;BME280;13424;48.424;11.258;2023-02-28T03:04:04;95994.63;;;-0.01;65.83
25526;BME280;13424;48.424;11.258;2023-02-28T03:06:31;95994.75;;;0.31;65.82
25526;BME280;13424;48.424;11.258;2023-02-28T03:08:57;95990.53;;;-0.11;66.33
25526;BME280;13424;48.424;11.258;2023-02-28T03:11:23;96000.69;;;0.33;65.42
25526;BME280;13424;48.424;11.258;2023-02-28T03:16:49;96004.56;;;0.61;63.75
25526;BME280;13424;48.424;11.258;2023-02-28T03:19:38;96000.19;;;0.21;64.80
25526;BME280;13424;48.424;11.258;2023-02-28T03:25:20;96015.34;;;0.74;63.67
25526;BME280;13424;48.424;11.258;2023-02-28T03:28:25;96015.03;;;0.69;64.23
25526;BME280;13424;48.424;11.258;2023-02-28T03:31:10;96002.66;;;0.06;65.23
25526;BME280;13424;48.424;11.258;2023-02-28T03:33:43;96012.84;;;0.17;64.89
25526;BME280;13424;48.424;11.258;2023-02-28T03:36:15;96024.31;;;0.00;65.72
25526;BME280;13424;48.424;11.258;2023-02-28T03:39:39;96015.38;;;0.66;63.67
25526;BME280;13424;48.424;11.258;2023-02-28T03:41:58;96014.28;;;-0.13;66.97
25526;BME280;13424;48.424;11.258;2023-02-28T03:44:42;96018.25;;;0.24;65.07
25526;BME280;13424;48.424;11.258;2023-02-28T03:47:29;96019.69;;;0.43;64.90
25526;BME280;13424;48.424;11.258;2023-02-28T03:52:49;96019.22;;;-0.02;66.46
25526;BME280;13424;48.424;11.258;2023-02-28T03:55:16;96023.63;;;-0.10;66.66
25526;BME280;13424;48.424;11.258;2023-02-28T04:00:46;96017.09;;;0.26;65.71
25526;BME280;13424;48.424;11.258;2023-02-28T04:03:15;96022.28;;;0.59;64.98
25526;BME280;13424;48.424;11.258;2023-02-28T04:05:51;96014.09;;;0.46;65.55
25526;BME280;13424;48.424;11.258;2023-02-28T04:08:17;96024.59;;;0.46;64.71
25526;BME280;13424;48.424;11.258;2023-02-28T04:10:43;96013.94;;;0.31;65.03
25526;BME280;13424;48.424;11.258;2023-02-28T04:13:11;96018.38;;;0.39;65.56
25526;BME280;13424;48.424;11.258;2023-02-28T04:15:37;96027.19;;;0.54;65.00
25526;BME280;13424;48.424;11.258;2023-02-28T04:18:03;96016.44;;;0.16;66.19
25526;BME280;13424;48.424;11.258;2023-02-28T04:20:29;96036.69;;;0.63;65.03
25526;BME280;13424;48.424;11.258;2023-02-28T04:23:00;96028.53;;;0.50;64.61
25526;BME280;13424;48.424;11.258;2023-02-28T04:25:26;96029.03;;;0.21;66.60
25526;BME280;13424;48.424;11.258;2023-02-28T04:27:53;96039.88;;;0.42;65.45
25526;BME280;13424;48.424;11.258;2023-02-28T04:30:20;96040.88;;;0.17;65.66
25526;BME280;13424;48.424;11.258;2023-02-28T04:32:46;96046.56;;;0.61;65.17
25526;BME280;13424;48.424;11.258;2023-02-28T04:35:11;96039.38;;;0.14;66.11
25526;BME280;13424;48.424;11.258;2023-02-28T04:37:37;96044.13;;;0.43;65.24
25526;BME280;13424;48.424;11.258;2023-02-28T04:40:04;96053.44;;;0.62;64.44
25526;BME280;13424;48.424;11.258;2023-02-28T04:42:29;96047.75;;;0.26;66.22
25526;BME280;13424;48.424;11.258;2023-02-28T04:48:39;96049.03;;;-0.19;66.24
25526;BME280;13424;48.424;11.258;2023-02-28T04:51:11;96052.00;;;0.27;66.03
25526;BME280;13424;48.424;11.258;2023-02-28T04:53:38;96048.56;;;0.35;66.08
25526;BME280;13424;48.424;11.258;2023-02-28T04:56:05;96055.28;;;0.21;66.39
25526;BME280;13424;48.424;11.258;2023-02-28T04:58:32;96046.41;;;0.38;65.56
25526;BME280;13424;48.424;11.258;2023-02-28T05:01:29;96048.19;;;0.62;65.41
25526;BME280;13424;48.424;11.258;2023-02-28T05:03:57;96046.13;;;0.01;66.37
25526;BME280;13424;48.424;11.258;2023-02-28T05:06:26;96054.41;;;0.69;65.09
25526;BME280;13424;48.424;11.258;2023-02-28T05:08:53;96060.88;;;0.18;65.63
25526;BME280;13424;48.424;11.258;2023-02-28T05:11:21;96059.69;;;0.53;64.46
25526;BME280;13424;48.424;11.258;2023-02-28T05:13:48;96059.22;;;-0.16;66.15
25526;BME280;13424;48.424;11.258;2023-02-28T05:16:15;96066.13;;;0.42;65.54
25526;BME280;13424;48.424;11.258;2023-02-28T05:18:41;96065.09;;;0.60;64.36
25526;BME280;13424;48.424;11.258;2023-02-28T05:21:33;96064.66;;;0.40;65.63
25526;BME280;13424;48.424;11.258;2023-02-28T05:24:02;96062.97;;;-0.02;66.98
25526;BME280;13424;48.424;11.258;2023-02-28T05:26:29;96068.22;;;0.31;64.92
25526;BME280;13424;48.424;11.258;2023-02-28T05:28:55;96064.94;;;-0.12;65.79
25526;BME280;13424;48.424;11.258;2023-02-28T05:31:22;96070.16;;;-0.29;66.98
25526;BME280;13424;48.424;11.258;2023-02-28T05:33:48;96064.47;;;0.41;65.63
25526;BME280;13424;48.424;11.258;2023-02-28T05:36:14;96068.72;;;0.02;65.82
25526;BME280;13424;48.424;11.258;2023-02-28T05:38:40;96069.84;;;-0.01;66.62
25526;BME280;13424;48.424;11.258;2023-02-28T05:41:09;96070.53;;;0.17;65.54
25526;BME280;13424;48.424;11.258;2023-02-28T05:43:37;96068.72;;;0.59;64.61
25526;BME280;13424;48.424;11.258;2023-02-28T05:46:05;96073.81;;;0.19;65.45
25526;BME280;13424;48.424;11.258;2023-02-28T05:48:36;96067.25;;;0.64;64.25
25526;BME280;13424;48.424;11.258;2023-02-28T05:51:03;96070.56;;;0.25;65.82
25526;BME280;13424;48.424;11.258;2023-02-28T05:53:30;96068.91;;;0.16;66.29
25526;BME280;13424;48.424;11.258;2023-02-28T05:55:56;96069.88;;;0.56;64.63
25526;BME280;13424;48.424;11.258;2023-02-28T05:58:22;96070.69;;;0.57;64.65
25526;BME280;13424;48.424;11.258;2023-02-28T06:00:48;96067.09;;;0.49;63.94
25526;BME280;13424;48.424;11.258;2023-02-28T06:03:14;96068.19;;;0.79;63.11
25526;BME280;13424;48.424;11.258;2023-02-28T06:05:40;96068.53;;;0.68;63.75
25526;BME280;13424;48.424;11.258;2023-02-28T06:08:06;96073.59;;;0.78;63.30
25526;BME280;13424;48.424;11.258;2023-02-28T06:10:34;96067.09;;;0.58;63.48
25526;BME280;13424;48.424;11.258;2023-02-28T06:13:01;96071.19;;;-0.05;65.62
25526;BME280;13424;48.424;11.258;2023-02-28T06:15:28;96071.53;;;0.57;64.25
25526;BME280;13424;48.424;11.258;2023-02-28T06:17:54;96068.03;;;-0.09;65.93
25526;BME280;13424;48.424;11.258;2023-02-28T06:20:22;96071.84;;;0.05;64.46
25526;BME280;13424;48.424;11.258;2023-02-28T06:22:48;96074.47;;;0.46;63.78
25526;BME280;13424;48.424;11.258;2023-02-28T06:25:16;96076.78;;;0.00;65.18
25526;BME280;13424;48.424;11.258;2023-02-28T06:27:42;96073.78;;;-0.13;64.87
25526;BME280;13424;48.424;11.258;2023-02-28T06:30:10;96078.41;;;0.34;65.22
25526;BME280;13424;48.424;11.258;2023-02-28T06:32:36;96088.91;;;0.42;64.15
25526;BME280;13424;48.424;11.258;2023-02-28T06:35:03;96088.75;;;0.51;63.91
25526;BME280;13424;48.424;11.258;2023-02-28T06:37:30;96096.41;;;-0.20;65.49
25526;BME280;13424;48.424;11.258;2023-02-28T06:39:56;96085.63;;;0.56;62.87
25526;BME280;13424;48.424;11.258;2023-02-28T06:42:24;96100.41;;;0.57;63.35
25526;BME280;13424;48.424;11.258;2023-02-28T06:44:56;96105.59;;;0.90;62.73
25526;BME280;13424;48.424;11.258;2023-02-28T06:47:31;96113.69;;;0.64;63.45
25526;BME280;13424;48.424;11.258;2023-02-28T06:49:58;96116.31;;;0.55;63.93
25526;BME280;13424;48.424;11.258;2023-02-28T06:52:26;96109.25;;;0.72;63.22
25526;BME280;13424;48.424;11.258;2023-02-28T06:54:52;96110.56;;;0.52;63.99
25526;BME280;13424;48.424;11.258;2023-02-28T06:57:32;96124.50;;;0.44;64.91
25526;BME280;13424;48.424;11.258;2023-02-28T07:00:01;96120.38;;;0.91;63.14
25526;BME280;13424;48.424;11.258;2023-02-28T07:02:31;96137.41;;;1.19;62.30
25526;BME280;13424;48.424;11.258;2023-02-28T07:04:57;96130.47;;;1.26;61.62
25526;BME280;13424;48.424;11.258;2023-02-28T07:07:31;96140.06;;;1.11;61.47
25526;BME280;13424;48.424;11.258;2023-02-28T07:09:58;96139.78;;;0.41;63.25
25526;BME280;13424;48.424;11.258;2023-02-28T07:12:23;96140.09;;;0.54;64.08
25526;BME280;13424;48.424;11.258;2023-02-28T07:14:49;96131.56;;;0.68;63.55
25526;BME280;13424;48.424;11.258;2023-02-28T07:17:15;96131.19;;;1.04;61.61
25526;BME280;13424;48.424;11.258;2023-02-28T07:19:41;96135.81;;;0.69;62.60
25526;BME280;13424;48.424;11.258;2023-02-28T07:22:07;96136.09;;;-0.07;65.85
25526;BME280;13424;48.424;11.258;2023-02-28T07:24:33;96138.13;;;0.40;64.31
25526;BME280;13424;48.424;11.258;2023-02-28T07:26:59;96136.16;;;0.42;63.36
25526;BME280;13424;48.424;11.258;2023-02-28T07:29:25;96137.13;;;0.73;62.96
25526;BME280;13424;48.424;11.258;2023-02-28T07:31:51;96138.44;;;0.77;63.11
25526;BME280;13424;48.424;11.258;2023-02-28T07:34:19;96146.66;;;0.42;63.51
25526;BME280;13424;48.424;11.258;2023-02-28T07:36:45;96138.44;;;0.86;63.33
25526;BME280;13424;48.424;11.258;2023-02-28T07:39:21;96137.34;;;1.44;60.78
25526;BME280;13424;48.424;11.258;2023-02-28T07:41:48;96134.16;;;0.76;63.29
25526;BME280;13424;48.424;11.258;2023-02-28T07:44:14;96136.59;;;1.66;61.15
25526;BME280;13424;48.424;11.258;2023-02-28T07:46:40;96135.84;;;1.80;60.97
25526;BME280;13424;48.424;11.258;2023-02-28T07:49:06;96139.63;;;1.38;62.22
25526;BME280;13424;48.424;11.258;2023-02-28T07:51:31;96140.06;;;0.70;62.88
25526;BME280;13424;48.424;11.258;2023-02-28T07:53:59;96140.28;;;1.40;61.45
25526;BME280;13424;48.424;11.258;2023-02-28T07:56:24;96138.22;;;1.67;61.43
25526;BME280;13424;48.424;11.258;2023-02-28T07:58:59;96145.66;;;0.92;62.27
25526;BME280;13424;48.424;11.258;2023-02-28T08:01:27;96145.97;;;1.05;61.50
25526;BME280;13424;48.424;11.258;2023-02-28T08:03:53;96140.25;;;1.49;60.63
25526;BME280;13424;48.424;11.258;2023-02-28T08:06:24;96140.31;;;1.72;60.92
25526;BME280;13424;48.424;11.258;2023-02-28T08:08:52;96142.41;;;1.45;60.95
25526;BME280;13424;48.424;11.258;2023-02-28T08:11:18;96144.84;;;1.55;61.09
25526;BME280;13424;48.424;11.258;2023-02-28T08:13:44;96143.06;;;1.47;61.04
25526;BME280;13424;48.424;11.258;2023-02-28T08:16:11;96144.44;;;1.27;61.42
25526;BME280;13424;48.424;11.258;2023-02-28T08:18:39;96143.19;;;1.93;60.57
25526;BME280;13424;48.424;11.258;2023-02-28T08:21:08;96149.72;;;1.74;61.71
25526;BME280;13424;48.424;11.258;2023-02-28T08:23:37;96147.28;;;0.84;61.60
25526;BME280;13424;48.424;11.258;2023-02-28T08:26:03;96161.50;;;1.78;60.30
25526;BME280;13424;48.424;11.258;2023-02-28T08:28:29;96156.53;;;1.91;60.71
25526;BME280;13424;48.424;11.258;2023-02-28T08:30:55;96151.91;;;1.54;62.21
25526;BME280;13424;48.424;11.258;2023-02-28T08:33:22;96157.88;;;1.79;60.70
25526;BME280;13424;48.424;11.258;2023-02-28T08:35:48;96149.34;;;1.30;62.79
25526;BME280;13424;48.424;11.258;2023-02-28T08:42:20;96153.19;;;1.66;60.91
25526;BME280;13424;48.424;11.258;2023-02-28T08:44:46;96149.44;;;1.61;62.32
25526;BME280;13424;48.424;11.258;2023-02-28T08:47:11;96148.84;;;1.74;62.46
25526;BME280;13424;48.424;11.258;2023-02-28T08:49:37;96153.50;;;1.63;62.29
25526;BME280;13424;48.424;11.258;2023-02-28T08:52:03;96156.94;;;1.72;61.55
25526;BME280;13424;48.424;11.258;2023-02-28T08:54:29;96159.09;;;1.13;62.71
25526;BME280;13424;48.424;11.258;2023-02-28T08:56:57;96161.19;;;1.18;62.86
25526;BME280;13424;48.424;11.258;2023-02-28T08:59:22;96156.06;;;1.40;62.39
25526;BME280;13424;48.424;11.258;2023-02-28T09:01:48;96159.38;;;1.18;62.14
25526;BME280;13424;48.424;11.258;2023-02-28T09:04:14;96158.59;;;1.65;62.03
25526;BME280;13424;48.424;11.258;2023-02-28T09:06:40;96158.06;;;2.09;62.79
25526;BME280;13424;48.424;11.258;2023-02-28T09:09:06;96158.94;;;1.62;62.75
25526;BME280;13424;48.424;11.258;2023-02-28T09:11:34;96156.50;;;2.00;61.98
25526;BME280;13424;48.424;11.258;2023-02-28T09:14:01;96158.38;;;2.14;62.15
25526;BME280;13424;48.424;11.258;2023-02-28T09:16:29;96157.88;;;1.79;61.57
25526;BME280;13424;48.424;11.258;2023-02-28T09:18:56;96158.44;;;2.06;61.34
25526;BME280;13424;48.424;11.258;2023-02-28T09:21:22;96171.09;;;2.33;60.03
25526;BME280;13424;48.424;11.258;2023-02-28T09:23:49;96169.31;;;1.94;60.07
25526;BME280;13424;48.424;11.258;2023-02-28T09:26:19;96158.31;;;1.60;61.30
25526;BME280;13424;48.424;11.258;2023-02-28T09:28:45;96161.19;;;1.73;61.39
25526;BME280;13424;48.424;11.258;2023-02-28T09:31:17;96160.25;;;1.58;61.42
25526;BME280;13424;48.424;11.258;2023-02-28T09:33:48;96172.69;;;1.80;61.06
25526;BME280;13424;48.424;11.258;2023-02-28T09:36:14;96187.19;;;1.68;61.49
25526;BME280;13424;48.424;11.258;2023-02-28T09:38:41;96175.84;;;2.07;60.81
25526;BME280;13424;48.424;11.258;2023-02-28T09:41:39;96176.69;;;2.07;61.06
25526;BME280;13424;48.424;11.258;2023-02-28T09:44:42;96179.59;;;2.12;60.84
25526;BME280;13424;48.424;11.258;2023-02-28T09:47:31;96173.50;;;2.12;60.39
25526;BME280;13424;48.424;11.258;2023-02-28T09:52:43;96180.03;;;2.24;61.03
25526;BME280;13424;48.424;11.258;2023-02-28T09:55:33;96187.78;;;2.48;60.19
25526;BME280;13424;48.424;11.258;2023-02-28T09:58:01;96195.09;;;2.38;60.95
25526;BME280;13424;48.424;11.258;2023-02-28T10:00:34;96198.25;;;2.34;61.21
25526;BME280;13424;48.424;11.258;2023-02-28T10:03:28;96202.94;;;2.46;60.54
25526;BME280;13424;48.424;11.258;2023-02-28T10:06:20;96193.81;;;2.57;59.89
25526;BME280;13424;48.424;11.258;2023-02-28T10:09:25;96198.47;;;2.24;59.72
25526;BME280;13424;48.424;11.258;2023-02-28T10:12:04;96201.66;;;2.65;60.27
25526;BME280;13424;48.424;11.258;2023-02-28T10:14:32;96200.19;;;2.86;59.04
25526;BME280;13424;48.424;11.258;2023-02-28T10:17:09;96205.03;;;2.74;59.15
25526;BME280;13424;48.424;11.258;2023-02-28T10:20:10;96209.25;;;2.83;59.16
25526;BME280;13424;48.424;11.258;2023-02-28T10:22:53;96201.41;;;3.35;58.33
25526;BME280;13424;48.424;11.258;2023-02-28T10:25:27;96205.66;;;3.22;58.37
25526;BME280;13424;48.424;11.258;2023-02-28T10:28:20;96205.44;;;3.76;58.45
25526;BME280;13424;48.424;11.258;2023-02-28T10:30:52;96211.59;;;3.53;58.89
25526;BME280;13424;48.424;11.258;2023-02-28T10:33:24;96213.78;;;3.35;59.01
25526;BME280;13424;48.424;11.258;2023-02-28T10:35:52;96201.06;;;3.53;59.06
25526;BME280;13424;48.424;11.258;2023-02-28T10:38:37;96207.00;;;3.18;59.02
25526;BME280;13424;48.424;11.258;2023-02-28T10:44:47;96213.91;;;3.19;58.25
25526;BME280;13424;48.424;11.258;2023-02-28T10:47:17;96217.44;;;3.63;58.61
25526;BME280;13424;48.424;11.258;2023-02-28T10:49:49;96218.09;;;3.95;58.18
25526;BME280;13424;48.424;11.258;2023-02-28T10:52:39;96209.25;;;3.58;57.96
25526;BME280;13424;48.424;11.258;2023-02-28T10:55:24;96209.97;;;3.52;57.29
25526;BME280;13424;48.424;11.258;2023-02-28T10:57:53;96214.06;;;4.50;56.48
25526;BME280;13424;48.424;11.258;2023-02-28T11:00:24;96204.22;;;4.08;56.54
25526;BME280;13424;48.424;11.258;2023-02-28T11:02:52;96214.53;;;4.54;56.80
25526;BME280;13424;48.424;11.258;2023-02-28T11:05:33;96214.81;;;4.44;58.61
25526;BME280;13424;48.424;11.258;2023-02-28T11:08:10;96221.25;;;4.05;57.09
25526;BME280;13424;48.424;11.258;2023-02-28T11:10:38;96220.88;;;3.93;57.33
25526;BME280;13424;48.424;11.258;2023-02-28T11:13:04;96218.03;;;4.25;57.31
25526;BME280;13424;48.424;11.258;2023-02-28T11:15:34;96220.56;;;4.69;56.61
25526;BME280;13424;48.424;11.258;2023-02-28T11:20:38;96208.34;;;4.89;56.01
25526;BME280;13424;48.424;11.258;2023-02-28T11:23:04;96214.50;;;4.17;57.27
25526;BME280;13424;48.424;11.258;2023-02-28T11:25:36;96216.06;;;4.48;58.05
25526;BME280;13424;48.424;11.258;2023-02-28T11:28:06;96217.53;;;4.51;56.69
25526;BME280;13424;48.424;11.258;2023-02-28T11:30:40;96222.63;;;4.52;57.10
25526;BME280;13424;48.424;11.258;2023-02-28T11:33:32;96210.56;;;5.07;57.17
25526;BME280;13424;48.424;11.258;2023-02-28T11:36:31;96211.88;;;4.54;56.47
25526;BME280;13424;48.424;11.258;2023-02-28T11:39:04;96203.91;;;4.90;56.62
25526;BME280;13424;48.424;11.258;2023-02-28T11:47:04;96212.56;;;4.62;56.60
25526;BME280;13424;48.424;11.258;2023-02-28T11:52:57;96193.34;;;4.90;55.99
25526;BME280;13424;48.424;11.258;2023-02-28T11:55:39;96194.19;;;4.97;57.25
25526;BME280;13424;48.424;11.258;2023-02-28T11:58:54;96195.22;;;4.96;55.20
25526;BME280;13424;48.424;11.258;2023-02-28T12:10:29;96183.66;;;5.25;55.26
25526;BME280;13424;48.424;11.258;2023-02-28T12:13:12;96189.16;;;4.81;56.15
25526;BME280;13424;48.424;11.258;2023-02-28T12:25:29;96172.53;;;5.29;56.08
25526;BME280;13424;48.424;11.258;2023-02-28T12:27:41;96175.16;;;5.29;55.10
25526;BME280;13424;48.424;11.258;2023-02-28T12:30:31;96174.56;;;5.62;55.89
25526;BME280;13424;48.424;11.258;2023-02-28T12:33:14;96174.22;;;5.44;55.88
25526;BME280;13424;48.424;11.258;2023-02-28T12:35:57;96164.44;;;5.44;55.84
25526;BME280;13424;48.424;11.258;2023-02-28T12:38:26;96173.56;;;5.63;56.19
25526;BME280;13424;48.424;11.258;2023-02-28T12:41:19;96168.66;;;5.95;54.09
25526;BME280;13424;48.424;11.258;2023-02-28T12:44:04;96168.03;;;5.93;55.06
25526;BME280;13424;48.424;11.258;2023-02-28T12:46:43;96173.16;;;6.49;55.18
25526;BME280;13424;48.424;11.258;2023-02-28T12:49:19;96169.94;;;6.73;53.64
25526;BME280;13424;48.424;11.258;2023-02-28T12:51:48;96173.22;;;7.02;52.81
25526;BME280;13424;48.424;11.258;2023-02-28T12:54:48;96173.44;;;7.07;52.03
25526;BME280;13424;48.424;11.258;2023-02-28T13:00:10;96166.25;;;6.74;54.02
25526;BME280;13424;48.424;11.258;2023-02-28T13:09:01;96154.88;;;7.07;52.77
25526;BME280;13424;48.424;11.258;2023-02-28T13:11:45;96156.69;;;6.86;53.81
25526;BME280;13424;48.424;11.258;2023-02-28T13:14:36;96155.44;;;7.62;50.68
25526;BME280;13424;48.424;11.258;2023-02-28T13:25:00;96146.91;;;6.06;51.85
25526;BME280;13424;48.424;11.258;2023-02-28T13:27:53;96154.66;;;7.02;51.55
25526;BME280;13424;48.424;11.258;2023-02-28T13:33:37;96156.06;;;7.11;50.36
25526;BME280;13424;48.424;11.258;2023-02-28T13:36:28;96152.19;;;6.67;51.81
25526;BME280;13424;48.424;11.258;2023-02-28T13:42:32;96150.16;;;6.82;51.94
25526;BME280;13424;48.424;11.258;2023-02-28T13:47:35;96157.94;;;6.97;51.21
25526;BME280;13424;48.424;11.258;2023-02-28T13:50:29;96153.38;;;6.58;52.85
25526;BME280;13424;48.424;11.258;2023-02-28T13:58:43;96160.16;;;7.07;51.25
25526;BME280;13424;48.424;11.258;2023-02-28T14:07:25;96150.56;;;6.05;54.00
25526;BME280;13424;48.424;11.258;2023-02-28T14:10:06;96152.59;;;6.77;53.23
25526;BME280;13424;48.424;11.258;2023-02-28T14:15:55;96154.19;;;6.52;52.24
25526;BME280;13424;48.424;11.258;2023-02-28T14:18:35;96165.31;;;6.27;51.34
25526;BME280;13424;48.424;11.258;2023-02-28T14:21:27;96161.88;;;6.33;53.10
25526;BME280;13424;48.424;11.258;2023-02-28T14:27:12;96153.75;;;6.41;52.97
25526;BME280;13424;48.424;11.258;2023-02-28T14:37:51;96158.56;;;6.18;53.57
25526;BME280;13424;48.424;11.258;2023-02-28T14:40:30;96156.19;;;6.36;52.76
25526;BME280;13424;48.424;11.258;2023-02-28T14:43:04;96160.94;;;5.65;54.19
25526;BME280;13424;48.424;11.258;2023-02-28T14:45:35;96154.88;;;5.71;55.35
25526;BME280;13424;48.424;11.258;2023-02-28T14:48:03;96156.28;;;6.83;52.23
25526;BME280;13424;48.424;11.258;2023-02-28T14:50:36;96149.94;;;6.77;50.86
25526;BME280;13424;48.424;11.258;2023-02-28T14:53:02;96163.91;;;6.38;51.54
25526;BME280;13424;48.424;11.258;2023-02-28T14:55:31;96160.78;;;6.14;52.57
25526;BME280;13424;48.424;11.258;2023-02-28T14:58:06;96156.19;;;6.36;53.60
25526;BME280;13424;48.424;11.258;2023-02-28T15:00:42;96162.91;;;6.32;52.06
25526;BME280;13424;48.424;11.258;2023-02-28T15:03:36;96154.59;;;5.94;52.48
25526;BME280;13424;48.424;11.258;2023-02-28T15:06:05;96150.56;;;6.05;53.86
25526;BME280;13424;48.424;11.258;2023-02-28T15:08:32;96154.25;;;6.10;52.45
25526;BME280;13424;48.424;11.258;2023-02-28T15:11:27;96152.69;;;6.29;52.09
25526;BME280;13424;48.424;11.258;2023-02-28T15:13:54;96155.56;;;6.34;52.57
25526;BME280;13424;48.424;11.258;2023-02-28T15:16:36;96162.47;;;6.29;54.11
25526;BME280;13424;48.424;11.258;2023-02-28T15:19:26;96168.09;;;6.74;51.27
25526;BME280;13424;48.424;11.258;2023-02-28T15:22:16;96169.47;;;6.50;52.55
25526;BME280;13424;48.424;11.258;2023-02-28T15:24:51;96160.72;;;5.95;54.17
25526;BME280;13424;48.424;11.258;2023-02-28T15:27:29;96169.53;;;5.74;55.39
25526;BME280;13424;48.424;11.258;2023-02-28T15:30:06;96168.25;;;5.98;54.08
25526;BME280;13424;48.424;11.258;2023-02-28T15:32:39;96163.09;;;6.37;52.97
25526;BME280;13424;48.424;11.258;2023-02-28T15:35:28;96174.22;;;6.74;51.53
25526;BME280;13424;48.424;11.258;2023-02-28T15:38:08;96175.47;;;6.17;53.05